sensor_id;sensor_type;location;lat;lon;timestamp;temperature;humidity
26224;DHT22;14820;48.682;8.890;2023-11-21T00:02:13;7.00;99.90
26224;DHT22;14820;48.682;8.890;2023-11-21T00:04:39;7.10;99.90
26224;DHT22;14820;48.682;8.890;2023-11-21T00:07:05;7.10;99.90
26224;DHT22;14820;48.682;8.890;2023-11-21T00:09:32;7.10;99.90
26224;DHT22;14820;48.682;8.890;2023-11-21T00:11:57;7.10;99.90
26224;DHT22;14820;48.682;8.890;2023-11-21T00:14:24;7.10;99.90
26224;DHT22;14820;48.682;8.890;2023-11-21T00:16:50;7.10;99.90
26224;DHT22;14820;48.682;8.890;2023-11-21T00:19:16;7.10;99.90
26224;DHT22;14820;48.682;8.890;2023-11-21T00:21:42;7.10;99.90
26224;DHT22;14820;48.682;8.890;2023-11-21T00:24:10;7.10;99.90
26224;DHT22;14820;48.682;8.890;2023-11-21T00:26:39;7.10;99.90
26224;DHT22;14820;48.682;8.890;2023-11-21T00:29:05;7.10;99.90
26224;DHT22;14820;48.682;8.890;2023-11-21T00:31:34;7.10;99.90
26224;DHT22;14820;48.682;8.890;2023-11-21T00:34:03;7.10;99.90
26224;DHT22;14820;48.682;8.890;2023-11-21T00:36:33;7.10;99.90
26224;DHT22;14820;48.682;8.890;2023-11-21T00:38:59;7.10;99.90
26224;DHT22;14820;48.682;8.890;2023-11-21T00:41:25;7.20;99.90
26224;DHT22;14820;48.682;8.890;2023-11-21T00:43:54;7.20;99.90
26224;DHT22;14820;48.682;8.890;2023-11-21T00:46:20;7.20;99.90
26224;DHT22;14820;48.682;8.890;2023-11-21T00:48:46;7.30;99.90
26224;DHT22;14820;48.682;8.890;2023-11-21T00:51:12;7.30;99.90
26224;DHT22;14820;48.682;8.890;2023-11-21T00:53:37;7.30;99.90
26224;DHT22;14820;48.682;8.890;2023-11-21T00:56:03;7.30;99.90
26224;DHT22;14820;48.682;8.890;2023-11-21T00:58:29;7.30;99.90
26224;DHT22;14820;48.682;8.890;2023-11-21T01:00:55;7.30;99.90
26224;DHT22;14820;48.682;8.890;2023-11-21T01:03:21;7.40;99.90
26224;DHT22;14820;48.682;8.890;2023-11-21T01:05:47;7.30;99.90
26224;DHT22;14820;48.682;8.890;2023-11-21T01:08:15;7.30;99.90
26224;DHT22;14820;48.682;8.890;2023-11-21T01:10:41;7.40;99.90
26224;DHT22;14820;48.682;8.890;2023-11-21T01:13:07;7.40;99.90
26224;DHT22;14820;48.682;8.890;2023-11-21T01:15:33;7.40;99.90
26224;DHT22;14820;48.682;8.890;2023-11-21T01:17:59;7.40;99.90
26224;DHT22;14820;48.682;8.890;2023-11-21T01:20:25;7.40;99.90
26224;DHT22;14820;48.682;8.890;2023-11-21T01:22:51;7.40;99.90
26224;DHT22;14820;48.682;8.890;2023-11-21T01:25:19;7.40;99.90
26224;DHT22;14820;48.682;8.890;2023-11-21T01:27:46;7.30;99.90
26224;DHT22;14820;48.682;8.890;2023-11-21T01:30:13;7.30;99.90
26224;DHT22;14820;48.682;8.890;2023-11-21T01:32:39;7.30;99.90
26224;DHT22;14820;48.682;8.890;2023-11-21T01:35:05;7.20;99.90
26224;DHT22;14820;48.682;8.890;2023-11-21T01:37:32;7.20;99.90
26224;DHT22;14820;48.682;8.890;2023-11-21T01:39:59;7.20;99.90
26224;DHT22;14820;48.682;8.890;2023-11-21T01:42:26;7.30;99.90
26224;DHT22;14820;48.682;8.890;2023-11-21T01:44:52;7.30;99.90
26224;DHT22;14820;48.682;8.890;2023-11-21T01:47:20;7.30;99.90
26224;DHT22;14820;48.682;8.890;2023-11-21T01:49:46;7.20;99.90
26224;DHT22;14820;48.682;8.890;2023-11-21T01:52:13;7.30;99.90
26224;DHT22;14820;48.682;8.890;2023-11-21T01:54:41;7.30;99.90
26224;DHT22;14820;48.682;8.890;2023-11-21T01:57:07;7.20;99.90
26224;DHT22;14820;48.682;8.890;2023-11-21T01:59:35;7.20;99.90
26224;DHT22;14820;48.682;8.890;2023-11-21T02:02:05;7.20;99.90
26224;DHT22;14820;48.682;8.890;2023-11-21T02:04:35;7.20;99.90
26224;DHT22;14820;48.682;8.890;2023-11-21T02:07:02;7.20;99.90
26224;DHT22;14820;48.682;8.890;2023-11-21T02:09:31;7.10;99.90
26224;DHT22;14820;48.682;8.890;2023-11-21T02:12:03;7.20;99.90
26224;DHT22;14820;48.682;8.890;2023-11-21T02:14:30;7.20;99.90
26224;DHT22;14820;48.682;8.890;2023-11-21T02:16:57;7.20;99.90
26224;DHT22;14820;48.682;8.890;2023-11-21T02:19:23;7.20;99.90
26224;DHT22;14820;48.682;8.890;2023-11-21T02:21:51;7.10;99.90
26224;DHT22;14820;48.682;8.890;2023-11-21T02:24:22;7.20;99.90
26224;DHT22;14820;48.682;8.890;2023-11-21T02:26:51;7.20;99.90
26224;DHT22;14820;48.682;8.890;2023-11-21T02:29:21;7.10;99.90
26224;DHT22;14820;48.682;8.890;2023-11-21T02:31:54;7.10;99.90
26224;DHT22;14820;48.682;8.890;2023-11-21T02:34:21;7.20;99.90
26224;DHT22;14820;48.682;8.890;2023-11-21T02:36:47;7.10;99.90
26224;DHT22;14820;48.682;8.890;2023-11-21T02:39:15;7.10;99.90
26224;DHT22;14820;48.682;8.890;2023-11-21T02:41:42;7.20;99.90
26224;DHT22;14820;48.682;8.890;2023-11-21T02:44:08;7.20;99.90
26224;DHT22;14820;48.682;8.890;2023-11-21T02:46:34;7.10;99.90
26224;DHT22;14820;48.682;8.890;2023-11-21T02:49:01;7.10;99.90
26224;DHT22;14820;48.682;8.890;2023-11-21T02:51:26;7.10;99.90
26224;DHT22;14820;48.682;8.890;2023-11-21T02:53:52;7.10;99.90
26224;DHT22;14820;48.682;8.890;2023-11-21T02:56:18;7.10;99.90
26224;DHT22;14820;48.682;8.890;2023-11-21T02:58:45;7.10;99.90
26224;DHT22;14820;48.682;8.890;2023-11-21T03:01:10;7.10;99.90
26224;DHT22;14820;48.682;8.890;2023-11-21T03:03:37;7.10;99.90
26224;DHT22;14820;48.682;8.890;2023-11-21T03:06:08;7.10;99.90
26224;DHT22;14820;48.682;8.890;2023-11-21T03:08:34;7.10;99.90
26224;DHT22;14820;48.682;8.890;2023-11-21T03:11:00;7.10;99.90
26224;DHT22;14820;48.682;8.890;2023-11-21T03:13:25;7.10;99.90
26224;DHT22;14820;48.682;8.890;2023-11-21T03:15:51;7.10;99.90
26224;DHT22;14820;48.682;8.890;2023-11-21T03:18:17;7.10;99.90
26224;DHT22;14820;48.682;8.890;2023-11-21T03:20:46;7.10;99.90
26224;DHT22;14820;48.682;8.890;2023-11-21T03:23:11;7.10;99.90
26224;DHT22;14820;48.682;8.890;2023-11-21T03:25:37;7.10;99.90
26224;DHT22;14820;48.682;8.890;2023-11-21T03:28:03;7.10;99.90
26224;DHT22;14820;48.682;8.890;2023-11-21T03:30:29;7.10;99.90
26224;DHT22;14820;48.682;8.890;2023-11-21T03:32:54;7.10;99.90
26224;DHT22;14820;48.682;8.890;2023-11-21T03:35:20;7.10;99.90
26224;DHT22;14820;48.682;8.890;2023-11-21T03:37:47;7.10;99.90
26224;DHT22;14820;48.682;8.890;2023-11-21T03:40:13;7.10;99.90
26224;DHT22;14820;48.682;8.890;2023-11-21T03:42:39;7.00;99.90
26224;DHT22;14820;48.682;8.890;2023-11-21T03:45:05;7.10;99.90
26224;DHT22;14820;48.682;8.890;2023-11-21T03:47:31;7.10;99.90
26224;DHT22;14820;48.682;8.890;2023-11-21T03:49:57;7.10;99.90
26224;DHT22;14820;48.682;8.890;2023-11-21T03:52:24;7.00;99.90
26224;DHT22;14820;48.682;8.890;2023-11-21T03:54:50;7.10;99.90
26224;DHT22;14820;48.682;8.890;2023-11-21T03:57:15;7.10;99.90
26224;DHT22;14820;48.682;8.890;2023-11-21T03:59:42;7.10;99.90
26224;DHT22;14820;48.682;8.890;2023-11-21T04:02:08;7.10;99.90
26224;DHT22;14820;48.682;8.890;2023-11-21T04:04:34;7.00;99.90
26224;DHT22;14820;48.682;8.890;2023-11-21T04:07:00;7.10;99.90
26224;DHT22;14820;48.682;8.890;2023-11-21T04:09:26;7.10;99.90
26224;DHT22;14820;48.682;8.890;2023-11-21T04:11:52;7.10;99.90
26224;DHT22;14820;48.682;8.890;2023-11-21T04:14:18;7.10;99.90
26224;DHT22;14820;48.682;8.890;2023-11-21T04:16:44;7.10;99.90
26224;DHT22;14820;48.682;8.890;2023-11-21T04:19:10;7.10;99.90
26224;DHT22;14820;48.682;8.890;2023-11-21T04:21:36;7.00;99.90
26224;DHT22;14820;48.682;8.890;2023-11-21T04:24:02;7.00;99.90
26224;DHT22;14820;48.682;8.890;2023-11-21T04:26:28;7.10;99.90
26224;DHT22;14820;48.682;8.890;2023-11-21T04:28:54;7.00;99.90
26224;DHT22;14820;48.682;8.890;2023-11-21T04:31:19;7.10;99.90
26224;DHT22;14820;48.682;8.890;2023-11-21T04:33:45;7.10;99.90
26224;DHT22;14820;48.682;8.890;2023-11-21T04:36:11;7.10;99.90
26224;DHT22;14820;48.682;8.890;2023-11-21T04:38:36;7.10;99.90
26224;DHT22;14820;48.682;8.890;2023-11-21T04:41:02;7.10;99.90
26224;DHT22;14820;48.682;8.890;2023-11-21T04:43:28;7.10;99.90
26224;DHT22;14820;48.682;8.890;2023-11-21T04:45:55;7.00;99.90
26224;DHT22;14820;48.682;8.890;2023-11-21T04:48:20;7.00;99.90
26224;DHT22;14820;48.682;8.890;2023-11-21T04:50:46;7.00;99.90
26224;DHT22;14820;48.682;8.890;2023-11-21T04:53:12;7.10;99.90
26224;DHT22;14820;48.682;8.890;2023-11-21T04:55:40;7.00;99.90
26224;DHT22;14820;48.682;8.890;2023-11-21T04:58:07;7.10;99.90
26224;DHT22;14820;48.682;8.890;2023-11-21T05:00:33;7.00;99.90
26224;DHT22;14820;48.682;8.890;2023-11-21T05:02:59;7.00;99.90
26224;DHT22;14820;48.682;8.890;2023-11-21T05:05:26;7.00;99.90
26224;DHT22;14820;48.682;8.890;2023-11-21T05:07:53;7.00;99.90
26224;DHT22;14820;48.682;8.890;2023-11-21T05:10:21;7.10;99.90
26224;DHT22;14820;48.682;8.890;2023-11-21T05:12:50;7.10;99.90
26224;DHT22;14820;48.682;8.890;2023-11-21T05:15:16;7.00;99.90
26224;DHT22;14820;48.682;8.890;2023-11-21T05:17:45;7.00;99.90
26224;DHT22;14820;48.682;8.890;2023-11-21T05:20:13;7.10;99.90
26224;DHT22;14820;48.682;8.890;2023-11-21T05:22:40;7.10;99.90
26224;DHT22;14820;48.682;8.890;2023-11-21T05:25:06;7.00;99.90
26224;DHT22;14820;48.682;8.890;2023-11-21T05:27:33;7.00;99.90
26224;DHT22;14820;48.682;8.890;2023-11-21T05:30:05;7.00;99.90
26224;DHT22;14820;48.682;8.890;2023-11-21T05:32:31;7.00;99.90
26224;DHT22;14820;48.682;8.890;2023-11-21T05:34:57;7.00;99.90
26224;DHT22;14820;48.682;8.890;2023-11-21T05:37:23;7.00;99.90
26224;DHT22;14820;48.682;8.890;2023-11-21T05:39:51;7.00;99.90
26224;DHT22;14820;48.682;8.890;2023-11-21T05:42:16;7.00;99.90
26224;DHT22;14820;48.682;8.890;2023-11-21T05:44:42;7.00;99.90
26224;DHT22;14820;48.682;8.890;2023-11-21T05:47:11;7.00;99.90
26224;DHT22;14820;48.682;8.890;2023-11-21T05:49:37;7.00;99.90
26224;DHT22;14820;48.682;8.890;2023-11-21T05:52:02;7.00;99.90
26224;DHT22;14820;48.682;8.890;2023-11-21T05:54:28;7.00;99.90
26224;DHT22;14820;48.682;8.890;2023-11-21T05:56:54;7.00;99.90
26224;DHT22;14820;48.682;8.890;2023-11-21T05:59:19;7.00;99.90
26224;DHT22;14820;48.682;8.890;2023-11-21T06:01:46;6.90;99.90
26224;DHT22;14820;48.682;8.890;2023-11-21T06:04:12;7.00;99.90
26224;DHT22;14820;48.682;8.890;2023-11-21T06:06:38;7.00;99.90
26224;DHT22;14820;48.682;8.890;2023-11-21T06:09:04;6.90;99.90
26224;DHT22;14820;48.682;8.890;2023-11-21T06:11:31;6.90;99.90
26224;DHT22;14820;48.682;8.890;2023-11-21T06:13:57;6.90;99.90
26224;DHT22;14820;48.682;8.890;2023-11-21T06:16:23;6.80;99.90
26224;DHT22;14820;48.682;8.890;2023-11-21T06:18:49;6.80;99.90
26224;DHT22;14820;48.682;8.890;2023-11-21T06:21:15;6.80;99.90
26224;DHT22;14820;48.682;8.890;2023-11-21T06:23:42;6.70;99.90
26224;DHT22;14820;48.682;8.890;2023-11-21T06:26:08;6.70;99.90
26224;DHT22;14820;48.682;8.890;2023-11-21T06:28:35;6.70;99.90
26224;DHT22;14820;48.682;8.890;2023-11-21T06:31:01;6.70;99.90
26224;DHT22;14820;48.682;8.890;2023-11-21T06:33:31;6.70;99.90
26224;DHT22;14820;48.682;8.890;2023-11-21T06:35:57;6.70;99.90
26224;DHT22;14820;48.682;8.890;2023-11-21T06:38:22;6.80;99.90
26224;DHT22;14820;48.682;8.890;2023-11-21T06:40:48;6.80;99.90
26224;DHT22;14820;48.682;8.890;2023-11-21T06:43:14;6.80;99.90
26224;DHT22;14820;48.682;8.890;2023-11-21T06:45:41;6.80;99.90
26224;DHT22;14820;48.682;8.890;2023-11-21T06:48:06;6.80;99.90
26224;DHT22;14820;48.682;8.890;2023-11-21T06:50:32;6.80;99.90
26224;DHT22;14820;48.682;8.890;2023-11-21T06:52:58;6.80;99.90
26224;DHT22;14820;48.682;8.890;2023-11-21T06:55:23;6.80;99.90
26224;DHT22;14820;48.682;8.890;2023-11-21T06:57:49;6.80;99.90
26224;DHT22;14820;48.682;8.890;2023-11-21T07:00:18;6.90;99.90
26224;DHT22;14820;48.682;8.890;2023-11-21T07:02:44;6.90;99.90
26224;DHT22;14820;48.682;8.890;2023-11-21T07:05:10;6.90;99.90
26224;DHT22;14820;48.682;8.890;2023-11-21T07:07:36;6.90;99.90
26224;DHT22;14820;48.682;8.890;2023-11-21T07:10:03;6.90;99.90
26224;DHT22;14820;48.682;8.890;2023-11-21T07:12:32;6.90;99.90
26224;DHT22;14820;48.682;8.890;2023-11-21T07:14:58;6.90;99.90
26224;DHT22;14820;48.682;8.890;2023-11-21T07:17:23;6.90;99.90
26224;DHT22;14820;48.682;8.890;2023-11-21T07:19:49;6.90;99.90
26224;DHT22;14820;48.682;8.890;2023-11-21T07:22:16;6.90;99.90
26224;DHT22;14820;48.682;8.890;2023-11-21T07:24:49;6.90;99.90
26224;DHT22;14820;48.682;8.890;2023-11-21T07:27:17;6.90;99.90
26224;DHT22;14820;48.682;8.890;2023-11-21T07:29:43;6.90;99.90
26224;DHT22;14820;48.682;8.890;2023-11-21T07:32:09;7.00;99.90
26224;DHT22;14820;48.682;8.890;2023-11-21T07:34:35;7.00;99.90
26224;DHT22;14820;48.682;8.890;2023-11-21T07:37:01;7.00;99.90
26224;DHT22;14820;48.682;8.890;2023-11-21T07:39:28;7.00;99.90
26224;DHT22;14820;48.682;8.890;2023-11-21T07:41:53;7.00;99.90
26224;DHT22;14820;48.682;8.890;2023-11-21T07:44:19;7.00;99.90
26224;DHT22;14820;48.682;8.890;2023-11-21T07:46:45;7.00;99.90
26224;DHT22;14820;48.682;8.890;2023-11-21T07:49:12;7.00;99.90
26224;DHT22;14820;48.682;8.890;2023-11-21T07:51:41;7.00;99.90
26224;DHT22;14820;48.682;8.890;2023-11-21T07:54:07;7.10;99.90
26224;DHT22;14820;48.682;8.890;2023-11-21T07:56:33;7.10;99.90
26224;DHT22;14820;48.682;8.890;2023-11-21T07:58:58;7.10;99.90
26224;DHT22;14820;48.682;8.890;2023-11-21T08:01:24;7.10;99.90
26224;DHT22;14820;48.682;8.890;2023-11-21T08:03:50;7.10;99.90
26224;DHT22;14820;48.682;8.890;2023-11-21T08:06:18;7.10;99.90
26224;DHT22;14820;48.682;8.890;2023-11-21T08:08:43;7.10;99.90
26224;DHT22;14820;48.682;8.890;2023-11-21T08:11:09;7.20;99.90
26224;DHT22;14820;48.682;8.890;2023-11-21T08:13:36;7.20;99.90
26224;DHT22;14820;48.682;8.890;2023-11-21T08:16:01;7.20;99.90
26224;DHT22;14820;48.682;8.890;2023-11-21T08:18:29;7.20;99.90
26224;DHT22;14820;48.682;8.890;2023-11-21T08:20:58;7.20;99.90
26224;DHT22;14820;48.682;8.890;2023-11-21T08:23:23;7.30;99.90
26224;DHT22;14820;48.682;8.890;2023-11-21T08:25:52;7.30;99.90
26224;DHT22;14820;48.682;8.890;2023-11-21T08:28:19;7.30;99.90
26224;DHT22;14820;48.682;8.890;2023-11-21T08:30:47;7.30;99.90
26224;DHT22;14820;48.682;8.890;2023-11-21T08:33:13;7.30;99.90
26224;DHT22;14820;48.682;8.890;2023-11-21T08:35:39;7.30;99.90
26224;DHT22;14820;48.682;8.890;2023-11-21T08:38:04;7.40;99.90
26224;DHT22;14820;48.682;8.890;2023-11-21T08:40:30;7.40;99.90
26224;DHT22;14820;48.682;8.890;2023-11-21T08:42:57;7.40;99.90
26224;DHT22;14820;48.682;8.890;2023-11-21T08:45:24;7.50;99.90
26224;DHT22;14820;48.682;8.890;2023-11-21T08:47:51;7.50;99.90
26224;DHT22;14820;48.682;8.890;2023-11-21T08:50:17;7.50;99.90
26224;DHT22;14820;48.682;8.890;2023-11-21T08:52:45;7.60;99.90
26224;DHT22;14820;48.682;8.890;2023-11-21T08:55:11;7.60;99.90
26224;DHT22;14820;48.682;8.890;2023-11-21T08:57:38;7.60;99.90
26224;DHT22;14820;48.682;8.890;2023-11-21T09:00:06;7.60;99.90
26224;DHT22;14820;48.682;8.890;2023-11-21T09:02:37;7.60;99.90
26224;DHT22;14820;48.682;8.890;2023-11-21T09:05:05;7.60;99.90
26224;DHT22;14820;48.682;8.890;2023-11-21T09:07:31;7.60;99.90
26224;DHT22;14820;48.682;8.890;2023-11-21T09:09:56;7.70;99.90
26224;DHT22;14820;48.682;8.890;2023-11-21T09:12:22;7.70;99.90
26224;DHT22;14820;48.682;8.890;2023-11-21T09:14:50;7.60;99.90
26224;DHT22;14820;48.682;8.890;2023-11-21T09:17:16;7.60;99.90
26224;DHT22;14820;48.682;8.890;2023-11-21T09:19:42;7.70;99.90
26224;DHT22;14820;48.682;8.890;2023-11-21T09:22:10;7.70;99.90
26224;DHT22;14820;48.682;8.890;2023-11-21T09:24:36;7.70;99.90
26224;DHT22;14820;48.682;8.890;2023-11-21T09:27:03;7.70;99.90
26224;DHT22;14820;48.682;8.890;2023-11-21T09:29:30;7.70;99.90
26224;DHT22;14820;48.682;8.890;2023-11-21T09:31:57;7.70;99.90
26224;DHT22;14820;48.682;8.890;2023-11-21T09:34:25;7.70;99.90
26224;DHT22;14820;48.682;8.890;2023-11-21T09:36:51;7.70;99.90
26224;DHT22;14820;48.682;8.890;2023-11-21T09:39:17;7.80;99.90
26224;DHT22;14820;48.682;8.890;2023-11-21T09:41:52;7.70;99.90
26224;DHT22;14820;48.682;8.890;2023-11-21T09:44:48;7.80;99.90
26224;DHT22;14820;48.682;8.890;2023-11-21T09:47:17;7.90;99.90
26224;DHT22;14820;48.682;8.890;2023-11-21T09:49:48;7.90;99.90
26224;DHT22;14820;48.682;8.890;2023-11-21T09:52:28;7.90;99.90
26224;DHT22;14820;48.682;8.890;2023-11-21T09:54:55;7.90;99.90
26224;DHT22;14820;48.682;8.890;2023-11-21T09:57:24;7.90;99.90
26224;DHT22;14820;48.682;8.890;2023-11-21T09:59:51;7.80;99.90
26224;DHT22;14820;48.682;8.890;2023-11-21T10:02:22;7.90;99.90
26224;DHT22;14820;48.682;8.890;2023-11-21T10:04:51;7.90;99.90
26224;DHT22;14820;48.682;8.890;2023-11-21T10:07:18;7.90;99.90
26224;DHT22;14820;48.682;8.890;2023-11-21T10:09:44;7.90;99.90
26224;DHT22;14820;48.682;8.890;2023-11-21T10:12:11;7.90;99.90
26224;DHT22;14820;48.682;8.890;2023-11-21T10:14:41;7.90;99.90
26224;DHT22;14820;48.682;8.890;2023-11-21T10:17:10;7.90;99.90
26224;DHT22;14820;48.682;8.890;2023-11-21T10:19:38;7.90;99.90
26224;DHT22;14820;48.682;8.890;2023-11-21T10:22:05;7.90;99.90
26224;DHT22;14820;48.682;8.890;2023-11-21T10:24:32;7.90;99.90
26224;DHT22;14820;48.682;8.890;2023-11-21T10:26:58;7.80;99.90
26224;DHT22;14820;48.682;8.890;2023-11-21T10:29:25;7.80;99.90
26224;DHT22;14820;48.682;8.890;2023-11-21T10:31:54;7.80;99.90
26224;DHT22;14820;48.682;8.890;2023-11-21T10:34:20;7.80;99.90
26224;DHT22;14820;48.682;8.890;2023-11-21T10:36:46;7.80;99.90
26224;DHT22;14820;48.682;8.890;2023-11-21T10:39:19;7.80;99.90
26224;DHT22;14820;48.682;8.890;2023-11-21T10:41:49;7.80;99.90
26224;DHT22;14820;48.682;8.890;2023-11-21T10:44:18;7.90;99.90
26224;DHT22;14820;48.682;8.890;2023-11-21T10:46:54;7.80;99.90
26224;DHT22;14820;48.682;8.890;2023-11-21T10:49:24;7.90;99.90
26224;DHT22;14820;48.682;8.890;2023-11-21T10:51:52;7.90;99.90
26224;DHT22;14820;48.682;8.890;2023-11-21T10:54:22;7.90;99.90
26224;DHT22;14820;48.682;8.890;2023-11-21T10:56:59;7.90;99.90
26224;DHT22;14820;48.682;8.890;2023-11-21T10:59:31;7.90;99.90
26224;DHT22;14820;48.682;8.890;2023-11-21T11:02:01;8.00;99.90
26224;DHT22;14820;48.682;8.890;2023-11-21T11:04:34;8.00;99.90
26224;DHT22;14820;48.682;8.890;2023-11-21T11:07:03;8.00;99.90
26224;DHT22;14820;48.682;8.890;2023-11-21T11:09:31;8.00;99.90
26224;DHT22;14820;48.682;8.890;2023-11-21T11:12:03;8.10;99.90
26224;DHT22;14820;48.682;8.890;2023-11-21T11:14:32;8.10;99.90
26224;DHT22;14820;48.682;8.890;2023-11-21T11:16:58;8.10;99.90
26224;DHT22;14820;48.682;8.890;2023-11-21T11:19:26;8.10;99.90
26224;DHT22;14820;48.682;8.890;2023-11-21T11:22:08;8.10;99.90
26224;DHT22;14820;48.682;8.890;2023-11-21T11:28:07;8.20;99.90
26224;DHT22;14820;48.682;8.890;2023-11-21T11:33:33;8.20;99.90
26224;DHT22;14820;48.682;8.890;2023-11-21T11:36:28;8.20;99.90
26224;DHT22;14820;48.682;8.890;2023-11-21T11:38:55;8.20;99.90
26224;DHT22;14820;48.682;8.890;2023-11-21T11:41:30;8.20;99.90
26224;DHT22;14820;48.682;8.890;2023-11-21T11:43:58;8.20;99.90
26224;DHT22;14820;48.682;8.890;2023-11-21T11:46:42;8.20;99.90
26224;DHT22;14820;48.682;8.890;2023-11-21T11:49:10;8.20;99.90
26224;DHT22;14820;48.682;8.890;2023-11-21T11:51:36;8.30;99.90
26224;DHT22;14820;48.682;8.890;2023-11-21T11:54:02;8.30;99.90
26224;DHT22;14820;48.682;8.890;2023-11-21T11:56:30;8.30;99.90
26224;DHT22;14820;48.682;8.890;2023-11-21T11:59:02;8.30;99.90
26224;DHT22;14820;48.682;8.890;2023-11-21T12:01:28;8.20;99.90
26224;DHT22;14820;48.682;8.890;2023-11-21T12:06:57;8.30;99.90
26224;DHT22;14820;48.682;8.890;2023-11-21T12:09:25;8.30;99.90
26224;DHT22;14820;48.682;8.890;2023-11-21T12:11:52;8.40;99.90
26224;DHT22;14820;48.682;8.890;2023-11-21T12:14:18;8.50;99.90
26224;DHT22;14820;48.682;8.890;2023-11-21T12:16:44;8.40;99.90
26224;DHT22;14820;48.682;8.890;2023-11-21T12:19:11;8.40;99.90
26224;DHT22;14820;48.682;8.890;2023-11-21T12:21:38;8.50;99.90
26224;DHT22;14820;48.682;8.890;2023-11-21T12:24:04;8.50;99.90
26224;DHT22;14820;48.682;8.890;2023-11-21T12:26:36;8.50;99.90
26224;DHT22;14820;48.682;8.890;2023-11-21T12:29:02;8.50;99.90
26224;DHT22;14820;48.682;8.890;2023-11-21T12:31:30;8.50;99.90
26224;DHT22;14820;48.682;8.890;2023-11-21T12:33:56;8.60;99.90
26224;DHT22;14820;48.682;8.890;2023-11-21T12:36:23;8.60;99.90
26224;DHT22;14820;48.682;8.890;2023-11-21T12:38:48;8.60;99.90
26224;DHT22;14820;48.682;8.890;2023-11-21T12:41:15;8.50;99.90
26224;DHT22;14820;48.682;8.890;2023-11-21T12:43:42;8.50;99.90
26224;DHT22;14820;48.682;8.890;2023-11-21T12:46:10;8.60;99.90
26224;DHT22;14820;48.682;8.890;2023-11-21T12:48:39;8.60;99.90
26224;DHT22;14820;48.682;8.890;2023-11-21T12:51:06;8.60;99.90
26224;DHT22;14820;48.682;8.890;2023-11-21T12:53:32;8.60;99.90
26224;DHT22;14820;48.682;8.890;2023-11-21T12:56:07;8.60;99.90
26224;DHT22;14820;48.682;8.890;2023-11-21T12:58:35;8.60;99.90
26224;DHT22;14820;48.682;8.890;2023-11-21T13:01:01;8.60;99.90
26224;DHT22;14820;48.682;8.890;2023-11-21T13:03:29;8.60;99.90
26224;DHT22;14820;48.682;8.890;2023-11-21T13:05:55;8.60;99.90
26224;DHT22;14820;48.682;8.890;2023-11-21T13:08:24;8.50;99.90
26224;DHT22;14820;48.682;8.890;2023-11-21T13:10:54;8.50;99.90
26224;DHT22;14820;48.682;8.890;2023-11-21T13:13:20;8.60;99.90
26224;DHT22;14820;48.682;8.890;2023-11-21T13:15:54;8.50;99.90
26224;DHT22;14820;48.682;8.890;2023-11-21T13:18:24;8.60;99.90
26224;DHT22;14820;48.682;8.890;2023-11-21T13:20:50;8.60;99.90
26224;DHT22;14820;48.682;8.890;2023-11-21T13:23:16;8.50;99.90
26224;DHT22;14820;48.682;8.890;2023-11-21T13:25:42;8.60;99.90
26224;DHT22;14820;48.682;8.890;2023-11-21T13:28:08;8.50;99.90
26224;DHT22;14820;48.682;8.890;2023-11-21T13:30:35;8.50;99.90
26224;DHT22;14820;48.682;8.890;2023-11-21T13:33:04;8.50;99.90
26224;DHT22;14820;48.682;8.890;2023-11-21T13:35:34;8.50;99.90
26224;DHT22;14820;48.682;8.890;2023-11-21T13:38:13;8.50;99.90
26224;DHT22;14820;48.682;8.890;2023-11-21T13:40:41;8.50;99.90
26224;DHT22;14820;48.682;8.890;2023-11-21T13:43:15;8.40;99.90
26224;DHT22;14820;48.682;8.890;2023-11-21T13:45:43;8.50;99.90
26224;DHT22;14820;48.682;8.890;2023-11-21T13:48:10;8.40;99.90
26224;DHT22;14820;48.682;8.890;2023-11-21T13:50:36;8.40;99.90
26224;DHT22;14820;48.682;8.890;2023-11-21T13:53:03;8.40;99.90
26224;DHT22;14820;48.682;8.890;2023-11-21T13:55:44;8.40;99.90
26224;DHT22;14820;48.682;8.890;2023-11-21T13:58:11;8.40;99.90
26224;DHT22;14820;48.682;8.890;2023-11-21T14:00:43;8.40;99.90
26224;DHT22;14820;48.682;8.890;2023-11-21T14:03:15;8.40;99.90
26224;DHT22;14820;48.682;8.890;2023-11-21T14:05:48;8.40;99.90
26224;DHT22;14820;48.682;8.890;2023-11-21T14:08:19;8.40;99.90
26224;DHT22;14820;48.682;8.890;2023-11-21T14:10:46;8.30;99.90
26224;DHT22;14820;48.682;8.890;2023-11-21T14:13:17;8.30;99.90
26224;DHT22;14820;48.682;8.890;2023-11-21T14:15:43;8.30;99.90
26224;DHT22;14820;48.682;8.890;2023-11-21T14:18:11;8.30;99.90
26224;DHT22;14820;48.682;8.890;2023-11-21T14:20:40;8.20;99.90
26224;DHT22;14820;48.682;8.890;2023-11-21T14:23:06;8.20;99.90
26224;DHT22;14820;48.682;8.890;2023-11-21T14:25:36;8.10;99.90
26224;DHT22;14820;48.682;8.890;2023-11-21T14:28:03;8.10;99.90
26224;DHT22;14820;48.682;8.890;2023-11-21T14:30:29;8.10;99.90
26224;DHT22;14820;48.682;8.890;2023-11-21T14:32:58;8.10;99.90
26224;DHT22;14820;48.682;8.890;2023-11-21T14:35:24;8.00;99.90
26224;DHT22;14820;48.682;8.890;2023-11-21T14:37:50;8.00;99.90
26224;DHT22;14820;48.682;8.890;2023-11-21T14:40:16;8.00;99.90
26224;DHT22;14820;48.682;8.890;2023-11-21T14:42:47;8.00;99.90
26224;DHT22;14820;48.682;8.890;2023-11-21T14:45:13;8.00;99.90
26224;DHT22;14820;48.682;8.890;2023-11-21T14:47:45;8.00;99.90
26224;DHT22;14820;48.682;8.890;2023-11-21T14:50:17;8.00;99.90
26224;DHT22;14820;48.682;8.890;2023-11-21T14:53:06;8.00;99.90
26224;DHT22;14820;48.682;8.890;2023-11-21T14:55:33;8.00;99.90
26224;DHT22;14820;48.682;8.890;2023-11-21T14:58:07;8.00;99.90
26224;DHT22;14820;48.682;8.890;2023-11-21T15:00:38;8.00;99.90
26224;DHT22;14820;48.682;8.890;2023-11-21T15:03:10;8.00;99.90
26224;DHT22;14820;48.682;8.890;2023-11-21T15:05:36;8.00;99.90
26224;DHT22;14820;48.682;8.890;2023-11-21T15:08:04;8.00;99.90
26224;DHT22;14820;48.682;8.890;2023-11-21T15:10:55;8.00;99.90
26224;DHT22;14820;48.682;8.890;2023-11-21T15:13:21;8.00;99.90
26224;DHT22;14820;48.682;8.890;2023-11-21T15:15:48;7.90;99.90
26224;DHT22;14820;48.682;8.890;2023-11-21T15:18:14;8.00;99.90
26224;DHT22;14820;48.682;8.890;2023-11-21T15:20:40;7.90;99.90
26224;DHT22;14820;48.682;8.890;2023-11-21T15:23:06;7.90;99.90
26224;DHT22;14820;48.682;8.890;2023-11-21T15:25:32;7.90;99.90
26224;DHT22;14820;48.682;8.890;2023-11-21T15:27:59;7.90;99.90
26224;DHT22;14820;48.682;8.890;2023-11-21T15:30:25;7.90;99.90
26224;DHT22;14820;48.682;8.890;2023-11-21T15:32:51;7.90;99.90
26224;DHT22;14820;48.682;8.890;2023-11-21T15:35:19;7.90;99.90
26224;DHT22;14820;48.682;8.890;2023-11-21T15:37:45;7.90;99.90
26224;DHT22;14820;48.682;8.890;2023-11-21T15:40:11;7.90;99.90
26224;DHT22;14820;48.682;8.890;2023-11-21T15:42:40;7.90;99.90
26224;DHT22;14820;48.682;8.890;2023-11-21T15:45:06;7.90;99.90
26224;DHT22;14820;48.682;8.890;2023-11-21T15:47:34;7.90;99.90
26224;DHT22;14820;48.682;8.890;2023-11-21T15:50:00;7.90;99.90
26224;DHT22;14820;48.682;8.890;2023-11-21T15:52:27;7.80;99.90
26224;DHT22;14820;48.682;8.890;2023-11-21T15:54:54;7.90;99.90
26224;DHT22;14820;48.682;8.890;2023-11-21T15:57:19;7.90;99.90